Egeland, North Dakota
Current Conditions -  °F | °C
As of 12:35 PM on Thursday 30 Oct 2014 (Local Time) from K9D7 Reporting Station
Scattered Clouds Scattered Clouds  
Wind Chill: 26°   Ceiling: Unl
Heat Index: 36°   Visibility: 10mi
Dew Point: 19°   Wind: 16mph
Humidity: 52%   Direction: 360°N
Pressure: 30.4"   Gusts: 28mph
Location:  48.63°N, 99.1°W
Report Text: K9D7 301735Z AUTO 36014G24KT 10SM SCT030 02/M07 A3040 RMK AO2
Loading
Personal Weather Stations






























Interactive Weather Map
Tropical Storm Tracking
New forecast layout! Learn more

10-Day Weather Forecast

Advertisements
Track Severe Weather on mobile